createdAt,value
2018-02-16T00:00:40.261Z,99.90
2018-02-16T00:03:07.737Z,99.90
2018-02-16T00:05:37.982Z,99.90
2018-02-16T00:08:06.229Z,99.90
2018-02-16T00:10:33.681Z,99.90
2018-02-16T00:13:01.161Z,99.90
2018-02-16T00:15:28.610Z,99.90
2018-02-16T00:17:56.084Z,99.90
2018-02-16T00:20:23.536Z,99.90
2018-02-16T00:22:51.784Z,99.90
2018-02-16T00:25:19.232Z,99.90
2018-02-16T00:27:46.708Z,99.90
2018-02-16T00:30:14.934Z,99.90
2018-02-16T00:32:42.417Z,99.90
2018-02-16T00:35:10.632Z,99.90
2018-02-16T00:37:38.114Z,99.90
2018-02-16T00:40:05.791Z,99.90
2018-02-16T00:42:33.274Z,99.90
2018-02-16T00:45:00.733Z,99.90
2018-02-16T00:47:28.213Z,99.90
2018-02-16T00:49:55.670Z,99.90
2018-02-16T00:52:23.149Z,99.90
2018-02-16T00:54:50.624Z,99.90
2018-02-16T00:57:18.106Z,99.90
2018-02-16T00:59:45.662Z,99.90
2018-02-16T01:02:13.849Z,99.90
2018-02-16T01:04:41.333Z,99.90
2018-02-16T01:07:08.781Z,99.90
2018-02-16T01:09:36.267Z,99.90
2018-02-16T01:12:03.717Z,99.90
2018-02-16T01:14:31.198Z,99.90
2018-02-16T01:16:58.662Z,99.90
2018-02-16T01:19:26.146Z,99.90
2018-02-16T01:21:54.369Z,99.90
2018-02-16T01:24:21.852Z,99.90
2018-02-16T01:26:49.304Z,99.90
2018-02-16T01:29:16.784Z,99.90
2018-02-16T01:31:44.248Z,99.90
2018-02-16T01:34:12.478Z,99.90
2018-02-16T01:36:40.709Z,99.90
2018-02-16T01:39:08.178Z,99.90
2018-02-16T01:41:36.389Z,99.90
2018-02-16T01:44:03.864Z,99.90
2018-02-16T01:46:31.313Z,99.90
2018-02-16T01:48:58.785Z,99.90
2018-02-16T01:51:26.235Z,99.90
2018-02-16T01:53:53.709Z,99.90
2018-02-16T01:56:21.200Z,99.90
2018-02-16T01:58:48.673Z,99.90
2018-02-16T02:01:16.112Z,99.90
2018-02-16T02:03:43.633Z,99.90
2018-02-16T02:06:11.124Z,99.90
2018-02-16T02:08:38.564Z,99.90
2018-02-16T02:11:06.037Z,99.90
2018-02-16T02:13:33.482Z,99.90
2018-02-16T02:16:00.962Z,99.90
2018-02-16T02:18:28.402Z,99.90
2018-02-16T02:20:55.872Z,99.90
2018-02-16T02:23:23.328Z,99.90
2018-02-16T02:25:51.589Z,99.90
2018-02-16T02:28:19.028Z,99.90
2018-02-16T02:30:46.508Z,99.90
2018-02-16T02:33:13.953Z,99.90
2018-02-16T02:35:41.427Z,99.90
2018-02-16T02:38:08.870Z,99.90
2018-02-16T02:40:37.111Z,99.90
2018-02-16T02:43:04.556Z,99.90
2018-02-16T02:45:32.034Z,99.90
2018-02-16T02:47:59.493Z,99.90
2018-02-16T02:50:26.965Z,99.90
2018-02-16T02:52:54.406Z,99.90
2018-02-16T02:55:22.640Z,99.90
2018-02-16T02:57:50.120Z,99.90
2018-02-16T03:00:17.564Z,99.90
2018-02-16T03:02:45.006Z,99.90
2018-02-16T03:05:13.340Z,99.90
2018-02-16T03:07:40.817Z,99.90
2018-02-16T03:10:08.268Z,99.90
2018-02-16T03:12:35.746Z,99.90
2018-02-16T03:15:03.192Z,99.90
2018-02-16T03:17:30.666Z,99.90
2018-02-16T03:19:58.118Z,99.90
2018-02-16T03:22:26.332Z,99.90
2018-02-16T03:24:53.808Z,99.90
2018-02-16T03:27:21.292Z,99.90
2018-02-16T03:29:48.736Z,99.90
2018-02-16T03:32:16.965Z,99.90
2018-02-16T03:34:44.408Z,99.90
2018-02-16T03:37:12.016Z,99.90
2018-02-16T03:39:39.570Z,99.90
2018-02-16T03:42:07.039Z,99.90
2018-02-16T03:44:34.488Z,99.90
2018-02-16T03:47:01.962Z,99.90
2018-02-16T03:49:29.408Z,99.90
2018-02-16T03:51:57.640Z,99.90
2018-02-16T03:54:25.091Z,99.90
2018-02-16T03:56:52.562Z,99.90
2018-02-16T03:59:20.000Z,99.90
2018-02-16T04:01:48.839Z,99.90
2018-02-16T04:04:16.281Z,99.90
2018-02-16T04:06:44.525Z,99.90
2018-02-16T04:09:11.964Z,99.90
2018-02-16T04:11:39.440Z,99.90
2018-02-16T04:14:06.881Z,99.90
2018-02-16T04:16:35.115Z,99.90
2018-02-16T04:19:02.559Z,99.90
2018-02-16T04:21:30.029Z,99.90
2018-02-16T04:23:57.467Z,99.90
2018-02-16T04:26:24.939Z,99.90
2018-02-16T04:28:52.384Z,99.90
2018-02-16T04:31:19.881Z,99.90
2018-02-16T04:33:47.324Z,99.90
2018-02-16T04:36:14.804Z,99.90
2018-02-16T04:38:42.267Z,99.90
2018-02-16T04:41:09.717Z,99.90
2018-02-16T04:43:37.195Z,99.90
2018-02-16T04:46:04.640Z,99.90
2018-02-16T04:48:32.107Z,99.90
2018-02-16T04:50:59.554Z,99.90
2018-02-16T04:53:27.789Z,99.90
2018-02-16T04:55:55.228Z,99.90
2018-02-16T04:58:22.704Z,99.90
2018-02-16T05:00:50.155Z,99.90
2018-02-16T05:03:18.391Z,99.90
2018-02-16T05:05:45.833Z,99.90
2018-02-16T05:08:13.313Z,99.90
2018-02-16T05:10:40.760Z,99.90
2018-02-16T05:13:08.999Z,99.90
2018-02-16T05:15:37.205Z,99.90
2018-02-16T05:18:04.669Z,99.90
2018-02-16T05:20:32.116Z,99.90
2018-02-16T05:22:59.588Z,99.90
2018-02-16T05:25:27.037Z,99.90
2018-02-16T05:27:54.509Z,99.90
2018-02-16T05:30:21.960Z,99.90
2018-02-16T05:32:50.210Z,99.90
2018-02-16T05:35:17.653Z,99.90
2018-02-16T05:37:45.129Z,99.90
2018-02-16T05:40:12.568Z,99.90
2018-02-16T05:42:40.812Z,99.90
2018-02-16T05:45:08.286Z,99.90
2018-02-16T05:47:35.754Z,99.90
2018-02-16T05:50:03.209Z,99.90
2018-02-16T05:52:30.682Z,99.90
2018-02-16T05:54:58.123Z,99.90
2018-02-16T05:57:25.600Z,99.90
2018-02-16T05:59:53.054Z,99.90
2018-02-16T06:02:21.301Z,99.90
2018-02-16T06:04:48.762Z,99.90
2018-02-16T06:07:16.232Z,99.90
2018-02-16T06:09:43.685Z,99.90
2018-02-16T06:12:11.149Z,99.90
2018-02-16T06:14:38.602Z,99.90
2018-02-16T06:17:06.088Z,99.90
2018-02-16T06:19:33.533Z,99.90
2018-02-16T06:22:01.764Z,99.90
2018-02-16T06:24:29.214Z,99.90
2018-02-16T06:26:56.690Z,99.90
2018-02-16T06:29:24.149Z,99.90
2018-02-16T06:31:52.384Z,99.90
2018-02-16T06:34:20.598Z,99.90
2018-02-16T06:36:48.832Z,99.90
2018-02-16T06:39:16.276Z,99.90
2018-02-16T06:41:43.760Z,99.90
2018-02-16T06:44:11.977Z,99.90
2018-02-16T06:46:39.452Z,99.90
2018-02-16T06:49:06.896Z,99.90
2018-02-16T06:51:34.378Z,99.90
2018-02-16T06:54:01.825Z,99.90
2018-02-16T06:56:29.302Z,99.90
2018-02-16T06:58:56.769Z,99.90
2018-02-16T07:01:24.225Z,99.90
2018-02-16T07:03:51.669Z,99.90
2018-02-16T07:06:19.142Z,99.90
2018-02-16T07:08:46.584Z,99.90
2018-02-16T07:11:14.049Z,99.90
2018-02-16T07:13:41.499Z,99.90
2018-02-16T07:16:08.978Z,99.90
2018-02-16T07:18:37.208Z,99.90
2018-02-16T07:21:04.691Z,99.90
2018-02-16T07:23:32.142Z,99.90
2018-02-16T07:25:59.601Z,99.90
2018-02-16T07:28:27.140Z,99.90
2018-02-16T07:30:54.612Z,99.90
2018-02-16T07:33:22.064Z,99.90
2018-02-16T07:35:50.306Z,99.90
2018-02-16T07:38:18.532Z,99.90
2018-02-16T07:40:46.772Z,99.90
2018-02-16T07:43:14.221Z,99.90
2018-02-16T07:45:41.702Z,99.90
2018-02-16T07:48:09.139Z,99.90
2018-02-16T07:50:37.393Z,99.90
2018-02-16T07:53:04.829Z,99.90
2018-02-16T07:55:32.353Z,99.90
2018-02-16T07:57:59.765Z,99.90
2018-02-16T08:00:27.234Z,99.90
2018-02-16T08:02:54.686Z,99.90
2018-02-16T08:05:22.920Z,99.90
2018-02-16T08:07:51.136Z,99.90
2018-02-16T08:10:18.613Z,99.90
2018-02-16T08:12:46.057Z,99.90
2018-02-16T08:15:14.291Z,99.90
2018-02-16T08:17:42.512Z,99.90
2018-02-16T08:20:09.989Z,99.90
2018-02-16T08:22:37.432Z,99.90
2018-02-16T08:25:04.916Z,99.90
2018-02-16T08:27:32.360Z,99.90
2018-02-16T08:30:00.612Z,99.90
2018-02-16T08:32:28.056Z,99.90
2018-02-16T08:34:55.505Z,99.90
2018-02-16T08:37:22.999Z,99.90
2018-02-16T08:39:50.444Z,99.90
2018-02-16T08:42:17.922Z,99.90
2018-02-16T08:44:45.373Z,99.90
2018-02-16T08:47:13.617Z,99.90
2018-02-16T08:49:41.065Z,99.90
2018-02-16T08:52:08.543Z,99.90
2018-02-16T08:54:36.010Z,99.90
2018-02-16T08:57:03.480Z,99.90
2018-02-16T08:59:30.933Z,99.90
2018-02-16T09:01:58.411Z,99.90
2018-02-16T09:04:25.888Z,99.90
2018-02-16T09:06:53.337Z,99.90
2018-02-16T09:09:20.798Z,99.90
2018-02-16T09:11:49.048Z,99.90
2018-02-16T09:14:16.475Z,99.90
2018-02-16T09:16:43.950Z,99.90
2018-02-16T09:19:14.328Z,99.90
2018-02-16T09:21:41.799Z,99.90
2018-02-16T09:24:09.246Z,99.90
2018-02-16T09:26:36.712Z,99.90
2018-02-16T09:29:04.170Z,99.90
2018-02-16T09:31:31.632Z,99.90
2018-02-16T09:33:59.080Z,99.90
2018-02-16T09:36:27.320Z,99.90
2018-02-16T09:38:59.468Z,99.90
2018-02-16T09:41:27.710Z,99.90
2018-02-16T09:43:55.157Z,99.90
2018-02-16T09:46:22.632Z,99.90
2018-02-16T09:48:50.087Z,99.90
2018-02-16T09:51:17.560Z,99.90
2018-02-16T09:53:45.007Z,99.90
2018-02-16T09:56:14.009Z,99.90
2018-02-16T09:58:41.441Z,99.90
2018-02-16T10:01:08.918Z,99.90
2018-02-16T10:03:36.361Z,99.90
2018-02-16T10:06:03.841Z,99.90
2018-02-16T10:08:31.291Z,99.90
2018-02-16T10:10:58.752Z,99.90
2018-02-16T10:13:26.199Z,99.90
2018-02-16T10:15:54.436Z,99.90
2018-02-16T10:18:21.889Z,99.90
2018-02-16T10:20:49.515Z,99.90
2018-02-16T10:23:16.953Z,99.90
2018-02-16T10:25:44.418Z,99.90
2018-02-16T10:28:11.873Z,99.90
2018-02-16T10:30:39.337Z,99.90
2018-02-16T10:33:06.783Z,99.90
2018-02-16T10:35:35.023Z,99.90
2018-02-16T10:38:02.465Z,99.90
2018-02-16T10:40:29.941Z,99.90
2018-02-16T10:42:57.390Z,99.90
2018-02-16T10:45:25.645Z,99.90
2018-02-16T10:47:53.100Z,99.90
2018-02-16T10:50:20.572Z,99.90
2018-02-16T10:52:48.025Z,99.90
2018-02-16T10:55:15.484Z,99.90
2018-02-16T10:57:42.933Z,99.90
2018-02-16T11:00:11.177Z,99.90
2018-02-16T11:02:44.184Z,99.90
2018-02-16T11:05:12.566Z,95.70
2018-02-16T11:07:45.636Z,95.30
2018-02-16T11:10:13.105Z,94.90
2018-02-16T11:12:40.552Z,93.90
2018-02-16T11:15:08.798Z,92.60
2018-02-16T11:17:36.247Z,92.60
2018-02-16T11:20:04.474Z,94.60
2018-02-16T11:22:31.912Z,94.50
2018-02-16T11:24:59.393Z,92.20
2018-02-16T11:27:26.830Z,92.00
2018-02-16T11:29:54.300Z,90.90
2018-02-16T11:32:21.744Z,89.80
2018-02-16T11:34:49.268Z,85.00
2018-02-16T11:37:16.697Z,89.90
2018-02-16T11:39:44.933Z,90.40
2018-02-16T11:42:12.376Z,90.40
2018-02-16T11:44:39.856Z,86.60
2018-02-16T11:47:07.304Z,86.10
2018-02-16T11:49:35.550Z,80.00
2018-02-16T11:52:03.000Z,79.90
2018-02-16T11:54:30.540Z,81.90
2018-02-16T11:56:58.812Z,85.60
2018-02-16T11:59:27.062Z,83.00
2018-02-16T12:01:54.513Z,82.80
2018-02-16T12:04:22.001Z,82.20
2018-02-16T12:06:49.449Z,81.80
2018-02-16T12:09:16.900Z,86.00
2018-02-16T12:11:44.373Z,87.00
2018-02-16T12:14:12.579Z,86.10
2018-02-16T12:16:40.054Z,86.00
2018-02-16T12:19:07.512Z,87.10
2018-02-16T12:21:34.990Z,86.00
2018-02-16T12:24:02.437Z,84.50
2018-02-16T12:26:30.672Z,80.90
2018-02-16T12:28:58.117Z,81.00
2018-02-16T12:31:25.593Z,82.70
2018-02-16T12:33:53.042Z,85.50
2018-02-16T12:36:21.284Z,87.20
2018-02-16T12:38:48.733Z,87.20
2018-02-16T12:41:16.204Z,87.00
2018-02-16T12:43:43.644Z,90.40
2018-02-16T12:46:11.881Z,90.60
2018-02-16T12:48:39.337Z,90.60
2018-02-16T12:51:06.813Z,89.90
2018-02-16T12:53:34.277Z,88.80
2018-02-16T12:56:01.753Z,89.40
2018-02-16T12:58:29.193Z,89.70
2018-02-16T13:00:56.670Z,88.40
2018-02-16T13:03:24.120Z,88.80
2018-02-16T13:05:52.383Z,86.60
2018-02-16T13:08:19.826Z,86.60
2018-02-16T13:10:47.317Z,87.00
2018-02-16T13:13:14.755Z,86.80
2018-02-16T13:15:42.254Z,93.40
2018-02-16T13:18:09.701Z,92.90
2018-02-16T13:20:37.196Z,93.40
2018-02-16T13:23:05.480Z,93.90
2018-02-16T13:25:32.963Z,94.00
2018-02-16T13:28:00.407Z,93.70
2018-02-16T13:30:27.880Z,91.80
2018-02-16T13:32:55.337Z,91.70
2018-02-16T13:35:22.816Z,93.80
2018-02-16T13:37:50.284Z,95.00
2018-02-16T13:40:18.529Z,96.70
2018-02-16T13:42:46.749Z,97.20
2018-02-16T13:45:14.225Z,97.00
2018-02-16T13:47:41.682Z,96.00
2018-02-16T13:50:09.160Z,96.20
2018-02-16T13:52:36.626Z,96.40
2018-02-16T13:55:04.101Z,96.20
2018-02-16T13:57:31.557Z,96.50
2018-02-16T13:59:59.816Z,96.70
2018-02-16T14:02:27.269Z,96.70
2018-02-16T14:04:54.736Z,96.50
2018-02-16T14:07:22.180Z,97.00
2018-02-16T14:09:49.661Z,97.60
2018-02-16T14:12:17.116Z,98.00
2018-02-16T14:14:44.594Z,98.10
2018-02-16T14:17:12.040Z,98.50
2018-02-16T14:19:40.288Z,98.80
2018-02-16T14:22:07.740Z,98.80
2018-02-16T14:24:35.241Z,99.00
2018-02-16T14:27:02.720Z,99.00
2018-02-16T14:29:30.210Z,99.00
2018-02-16T14:31:58.432Z,98.90
2018-02-16T14:34:25.919Z,98.80
2018-02-16T14:36:53.371Z,99.10
2018-02-16T14:39:20.836Z,98.60
2018-02-16T14:41:48.337Z,98.70
2018-02-16T14:44:15.854Z,98.90
2018-02-16T14:46:43.265Z,98.70
2018-02-16T14:49:10.741Z,99.30
2018-02-16T14:51:38.201Z,99.60
2018-02-16T14:54:05.693Z,99.90
2018-02-16T14:56:33.140Z,99.90
2018-02-16T14:59:00.613Z,99.90
2018-02-16T15:01:28.065Z,99.90
2018-02-16T15:03:55.546Z,99.90
2018-02-16T15:06:23.020Z,99.90
2018-02-16T15:08:50.502Z,99.90
2018-02-16T15:11:17.954Z,99.90
2018-02-16T15:13:45.420Z,99.90
2018-02-16T15:16:12.858Z,99.90
2018-02-16T15:18:40.332Z,99.90
2018-02-16T15:21:07.787Z,99.90
2018-02-16T15:23:35.280Z,99.90
2018-02-16T15:26:03.484Z,99.90
2018-02-16T15:28:30.972Z,99.90
2018-02-16T15:30:58.426Z,99.90
2018-02-16T15:33:25.909Z,99.90
2018-02-16T15:35:53.352Z,99.90
2018-02-16T15:38:21.579Z,99.90
2018-02-16T15:40:49.032Z,99.90
2018-02-16T15:43:16.503Z,99.90
2018-02-16T15:45:43.977Z,99.90
2018-02-16T15:48:11.474Z,99.90
2018-02-16T15:50:38.943Z,99.90
2018-02-16T15:53:06.412Z,99.90
2018-02-16T15:55:33.856Z,99.90
2018-02-16T15:58:01.341Z,99.90
2018-02-16T16:00:28.797Z,99.90
2018-02-16T16:02:56.237Z,99.90
2018-02-16T16:05:23.708Z,99.90
2018-02-16T16:07:51.201Z,99.90
2018-02-16T16:10:19.430Z,99.90
2018-02-16T16:12:46.870Z,99.90
2018-02-16T16:15:14.332Z,99.90
2018-02-16T16:17:41.783Z,99.90
2018-02-16T16:20:09.253Z,99.90
2018-02-16T16:22:36.717Z,99.90
2018-02-16T16:25:04.188Z,99.90
2018-02-16T16:27:31.638Z,99.90
2018-02-16T16:29:59.116Z,99.90
2018-02-16T16:32:26.572Z,99.90
2018-02-16T16:34:54.016Z,99.90
2018-02-16T16:37:21.580Z,99.90
2018-02-16T16:39:49.053Z,99.90
2018-02-16T16:42:16.530Z,99.90
2018-02-16T16:44:43.973Z,99.90
2018-02-16T16:47:12.204Z,99.90
2018-02-16T16:49:39.668Z,99.90
2018-02-16T16:52:07.144Z,99.90
2018-02-16T16:54:34.575Z,99.90
2018-02-16T16:57:02.809Z,99.90
2018-02-16T16:59:30.252Z,99.90
2018-02-16T17:01:57.706Z,99.90
2018-02-16T17:04:25.939Z,99.90
2018-02-16T17:06:53.437Z,99.90
2018-02-16T17:09:20.873Z,99.90
2018-02-16T17:11:48.329Z,99.90
2018-02-16T17:14:15.797Z,99.90
2018-02-16T17:16:43.268Z,99.90
2018-02-16T17:19:10.768Z,99.90
2018-02-16T17:21:39.431Z,99.90
2018-02-16T17:24:06.964Z,99.90
2018-02-16T17:26:34.440Z,99.90
2018-02-16T17:29:01.892Z,99.90
2018-02-16T17:31:29.356Z,99.90
2018-02-16T17:33:56.804Z,99.90
2018-02-16T17:36:25.046Z,99.90
2018-02-16T17:38:52.520Z,99.90
2018-02-16T17:41:20.002Z,99.90
2018-02-16T17:43:47.456Z,99.90
2018-02-16T17:46:15.708Z,99.90
2018-02-16T17:48:43.158Z,99.90
2018-02-16T17:51:11.397Z,99.90
2018-02-16T17:53:38.857Z,99.90
2018-02-16T17:56:06.329Z,99.90
2018-02-16T17:58:33.784Z,99.90
2018-02-16T18:01:01.261Z,99.90
2018-02-16T18:03:28.716Z,99.90
2018-02-16T18:05:56.188Z,99.90
2018-02-16T18:08:23.637Z,99.90
2018-02-16T18:10:51.876Z,99.90
2018-02-16T18:13:19.329Z,99.90
2018-02-16T18:15:46.797Z,99.90
2018-02-16T18:18:14.249Z,99.90
2018-02-16T18:20:42.484Z,99.90
2018-02-16T18:23:09.920Z,99.90
2018-02-16T18:25:37.385Z,99.90
2018-02-16T18:28:04.828Z,99.90
2018-02-16T18:30:33.042Z,99.90
2018-02-16T18:33:00.517Z,99.90
2018-02-16T18:35:27.977Z,99.90
2018-02-16T18:37:56.220Z,99.90
2018-02-16T18:40:23.664Z,99.90
2018-02-16T18:42:51.149Z,99.90
2018-02-16T18:45:18.590Z,99.90
2018-02-16T18:47:46.069Z,99.90
2018-02-16T18:50:13.504Z,99.90
2018-02-16T18:52:41.740Z,99.90
2018-02-16T18:55:09.187Z,99.90
2018-02-16T18:57:36.658Z,99.90
2018-02-16T19:00:04.097Z,99.90
2018-02-16T19:02:32.359Z,99.90
2018-02-16T19:04:59.801Z,99.90
2018-02-16T19:07:27.285Z,99.90
2018-02-16T19:09:54.727Z,99.90
2018-02-16T19:12:22.238Z,99.90
2018-02-16T19:14:49.689Z,99.90
2018-02-16T19:17:17.163Z,99.90
2018-02-16T19:19:44.612Z,99.90
2018-02-16T19:22:12.084Z,99.90
2018-02-16T19:24:39.787Z,99.90
2018-02-16T19:27:07.288Z,99.90
2018-02-16T19:29:35.104Z,99.90
2018-02-16T19:32:02.628Z,99.90
2018-02-16T19:34:30.082Z,99.90
2018-02-16T19:36:58.316Z,99.90
2018-02-16T19:39:26.556Z,99.90
2018-02-16T19:41:54.795Z,99.90
2018-02-16T19:44:23.369Z,99.90
2018-02-16T19:46:51.315Z,99.90
2018-02-16T19:49:19.770Z,99.90
2018-02-16T19:51:47.270Z,99.90
2018-02-16T19:54:14.716Z,99.90
2018-02-16T19:56:42.954Z,99.90
2018-02-16T19:59:10.977Z,99.90
2018-02-16T20:01:38.801Z,99.90
2018-02-16T20:04:06.284Z,99.90
2018-02-16T20:06:34.027Z,99.90
2018-02-16T20:09:01.506Z,99.90
2018-02-16T20:11:28.985Z,99.90
2018-02-16T20:13:56.441Z,99.90
2018-02-16T20:16:24.243Z,99.90
2018-02-16T20:18:52.012Z,99.90
2018-02-16T20:21:19.538Z,99.90
2018-02-16T20:23:47.296Z,99.90
2018-02-16T20:26:15.573Z,99.90
2018-02-16T20:28:43.449Z,99.90
2018-02-16T20:31:11.750Z,99.90
2018-02-16T20:33:39.189Z,99.90
2018-02-16T20:36:06.678Z,99.90
2018-02-16T20:38:34.144Z,99.90
2018-02-16T20:41:01.621Z,99.90
2018-02-16T20:43:29.068Z,99.90
2018-02-16T20:45:56.543Z,99.90
2018-02-16T20:48:24.076Z,99.90
2018-02-16T20:50:51.705Z,99.90
2018-02-16T20:53:20.263Z,99.90
2018-02-16T20:55:48.517Z,99.90
2018-02-16T20:58:15.976Z,99.90
2018-02-16T21:00:43.489Z,99.90
2018-02-16T21:03:11.721Z,99.90
2018-02-16T21:05:39.196Z,99.90
2018-02-16T21:08:06.653Z,99.90
2018-02-16T21:10:34.125Z,99.90
2018-02-16T21:13:01.578Z,99.90
2018-02-16T21:15:29.056Z,99.90
2018-02-16T21:17:56.496Z,99.90
2018-02-16T21:20:23.977Z,99.90
2018-02-16T21:22:52.208Z,99.90
2018-02-16T21:25:19.681Z,99.90
2018-02-16T21:27:47.133Z,99.90
2018-02-16T21:30:14.607Z,99.90
2018-02-16T21:32:42.075Z,99.90
2018-02-16T21:35:09.557Z,99.90
2018-02-16T21:37:37.001Z,99.90
2018-02-16T21:40:04.471Z,99.90
2018-02-16T21:42:32.689Z,99.90
2018-02-16T21:45:00.164Z,99.90
2018-02-16T21:47:27.611Z,99.90
2018-02-16T21:49:55.105Z,99.90
2018-02-16T21:52:22.548Z,99.90
2018-02-16T21:54:50.028Z,99.90
2018-02-16T21:57:17.473Z,99.90
2018-02-16T21:59:45.759Z,99.90
2018-02-16T22:02:13.160Z,99.90
2018-02-16T22:04:40.628Z,99.90
2018-02-16T22:07:08.076Z,99.90
2018-02-16T22:09:35.551Z,99.90
2018-02-16T22:12:03.767Z,99.90
2018-02-16T22:14:31.235Z,99.90
2018-02-16T22:16:58.689Z,99.90
2018-02-16T22:19:26.183Z,99.90
2018-02-16T22:21:53.657Z,99.90
2018-02-16T22:24:21.125Z,99.90
2018-02-16T22:26:48.774Z,99.90
2018-02-16T22:29:17.154Z,99.90
2018-02-16T22:31:45.366Z,99.90
2018-02-16T22:34:12.849Z,99.90
2018-02-16T22:36:40.296Z,99.90
2018-02-16T22:39:07.779Z,99.90
2018-02-16T22:41:35.259Z,99.90
2018-02-16T22:44:02.693Z,99.90
2018-02-16T22:46:30.944Z,99.90
2018-02-16T22:48:58.388Z,99.90
2018-02-16T22:51:26.841Z,99.90
2018-02-16T22:53:55.044Z,99.90
2018-02-16T22:56:23.287Z,99.90
2018-02-16T22:58:50.745Z,99.90
2018-02-16T23:01:18.216Z,99.90
2018-02-16T23:03:46.437Z,99.90
2018-02-16T23:06:13.961Z,99.90
2018-02-16T23:08:41.375Z,99.90
2018-02-16T23:11:08.852Z,99.90
2018-02-16T23:13:36.298Z,99.90
2018-02-16T23:16:03.764Z,99.90
2018-02-16T23:18:31.216Z,99.90
2018-02-16T23:20:58.734Z,99.90
2018-02-16T23:23:26.138Z,99.90
2018-02-16T23:25:53.604Z,99.90
2018-02-16T23:28:21.049Z,99.90
2018-02-16T23:30:48.519Z,99.90
2018-02-16T23:33:15.963Z,99.90
2018-02-16T23:35:43.436Z,99.90
2018-02-16T23:38:10.885Z,99.90
2018-02-16T23:40:38.398Z,99.90
2018-02-16T23:43:05.785Z,99.90
2018-02-16T23:45:33.273Z,99.90
2018-02-16T23:48:00.731Z,99.90
2018-02-16T23:50:28.193Z,99.90
2018-02-16T23:52:55.651Z,99.90
2018-02-16T23:55:23.122Z,99.90
2018-02-16T23:57:50.598Z,99.90
